createdAt,value
2019-03-16T00:02:35.154Z,54.44
2019-03-16T00:07:39.365Z,54.55
2019-03-16T00:12:43.695Z,55.17
2019-03-16T00:17:47.945Z,55.18
2019-03-16T00:22:52.278Z,55.54
2019-03-16T00:27:56.491Z,55.56
2019-03-16T00:33:00.729Z,56.02
2019-03-16T00:38:04.964Z,56.01
2019-03-16T00:43:09.222Z,56.46
2019-03-16T00:48:13.635Z,56.50
2019-03-16T00:53:17.877Z,56.65
2019-03-16T00:58:22.304Z,56.80
2019-03-16T01:03:26.589Z,57.24
2019-03-16T01:08:30.821Z,57.74
2019-03-16T01:13:35.046Z,57.85
2019-03-16T01:18:39.288Z,57.96
2019-03-16T01:23:43.510Z,58.21
2019-03-16T01:28:47.765Z,58.77
2019-03-16T01:33:52.033Z,59.13
2019-03-16T01:38:56.270Z,59.43
2019-03-16T01:44:00.517Z,59.63
2019-03-16T01:49:04.927Z,59.99
2019-03-16T01:54:09.173Z,60.09
2019-03-16T01:59:13.395Z,60.32
2019-03-16T02:04:17.614Z,60.35
2019-03-16T02:09:21.847Z,60.49
2019-03-16T02:14:26.080Z,60.94
2019-03-16T02:19:30.335Z,61.14
2019-03-16T02:24:34.600Z,60.95
2019-03-16T02:29:38.836Z,60.72
2019-03-16T02:34:43.070Z,60.68
2019-03-16T02:39:47.305Z,60.61
2019-03-16T02:44:51.534Z,60.74
2019-03-16T02:49:55.756Z,60.76
2019-03-16T02:54:59.997Z,60.59
2019-03-16T03:00:05.660Z,60.49
2019-03-16T03:05:10.246Z,60.72
2019-03-16T03:10:14.781Z,60.73
2019-03-16T03:15:19.009Z,61.30
2019-03-16T03:20:23.258Z,61.41
2019-03-16T03:25:27.476Z,61.89
2019-03-16T03:30:31.706Z,62.02
2019-03-16T03:35:35.930Z,62.09
2019-03-16T03:40:40.377Z,62.36
2019-03-16T03:45:44.624Z,62.38
2019-03-16T03:50:48.850Z,62.72
2019-03-16T03:55:53.076Z,62.44
2019-03-16T04:00:58.577Z,62.75
2019-03-16T04:06:02.821Z,62.85
2019-03-16T04:11:07.065Z,62.74
2019-03-16T04:16:11.283Z,62.51
2019-03-16T04:21:15.500Z,62.76
2019-03-16T04:26:19.723Z,62.99
2019-03-16T04:31:23.950Z,62.67
2019-03-16T04:36:28.196Z,62.85
2019-03-16T04:41:32.415Z,63.26
2019-03-16T04:46:36.636Z,63.23
2019-03-16T04:51:40.870Z,63.21
2019-03-16T04:56:45.092Z,63.66
2019-03-16T05:01:49.319Z,63.52
2019-03-16T05:06:53.605Z,63.77
2019-03-16T05:11:57.838Z,63.83
2019-03-16T05:17:02.254Z,63.92
2019-03-16T05:22:06.512Z,64.36
2019-03-16T05:27:10.790Z,64.20
2019-03-16T05:32:15.047Z,64.62
2019-03-16T05:37:19.267Z,64.81
2019-03-16T05:42:23.627Z,64.79
2019-03-16T05:47:27.899Z,64.57
2019-03-16T05:52:32.506Z,64.44
2019-03-16T05:57:36.745Z,64.47
2019-03-16T06:02:40.979Z,64.50
2019-03-16T06:07:45.197Z,64.42
2019-03-16T06:12:49.460Z,64.15
2019-03-16T06:17:53.705Z,64.47
2019-03-16T06:22:57.940Z,64.40
2019-03-16T06:28:02.164Z,63.88
2019-03-16T06:33:06.402Z,63.83
2019-03-16T06:38:10.657Z,63.41
2019-03-16T06:43:14.878Z,63.00
2019-03-16T06:48:19.107Z,62.82
2019-03-16T06:53:23.329Z,62.40
2019-03-16T06:58:27.567Z,62.50
2019-03-16T07:03:31.891Z,62.70
2019-03-16T07:08:36.124Z,62.06
2019-03-16T07:13:40.360Z,61.62
2019-03-16T07:18:44.606Z,61.30
2019-03-16T07:23:48.830Z,61.11
2019-03-16T07:28:53.055Z,61.40
2019-03-16T07:33:57.321Z,61.51
2019-03-16T07:39:01.547Z,61.46
2019-03-16T07:44:05.790Z,61.14
2019-03-16T07:49:10.029Z,60.77
2019-03-16T07:54:14.323Z,59.89
2019-03-16T07:59:18.563Z,59.90
2019-03-16T08:04:22.805Z,60.29
2019-03-16T08:09:27.044Z,60.37
2019-03-16T08:14:31.275Z,60.11
2019-03-16T08:19:35.621Z,59.02
2019-03-16T08:24:39.883Z,59.64
2019-03-16T08:29:44.200Z,59.65
2019-03-16T08:34:48.634Z,59.09
2019-03-16T08:39:52.980Z,59.45
2019-03-16T08:44:57.267Z,58.81
2019-03-16T08:50:01.668Z,57.95
2019-03-16T08:55:06.426Z,58.29
2019-03-16T09:00:11.115Z,57.77
2019-03-16T09:05:15.369Z,57.44
2019-03-16T09:10:19.595Z,57.19
2019-03-16T09:15:24.064Z,57.41
2019-03-16T09:20:28.314Z,57.02
2019-03-16T09:25:32.572Z,55.88
2019-03-16T09:30:36.941Z,56.19
2019-03-16T09:35:41.211Z,54.93
2019-03-16T09:40:45.492Z,54.20
2019-03-16T09:45:49.777Z,53.29
2019-03-16T09:50:54.015Z,52.44
2019-03-16T09:55:58.287Z,54.14
2019-03-16T10:01:02.909Z,54.43
2019-03-16T10:06:07.263Z,54.49
2019-03-16T10:11:11.524Z,53.08
2019-03-16T10:16:15.786Z,52.13
2019-03-16T10:21:20.129Z,51.63
2019-03-16T10:26:24.748Z,51.01
2019-03-16T10:31:29.007Z,49.00
2019-03-16T10:36:33.442Z,49.14
2019-03-16T10:41:37.689Z,50.01
2019-03-16T10:46:41.977Z,52.80
2019-03-16T10:51:46.233Z,51.04
2019-03-16T10:56:50.577Z,50.24
2019-03-16T11:01:54.841Z,49.42
2019-03-16T11:06:59.137Z,48.50
2019-03-16T11:12:03.359Z,48.80
2019-03-16T11:17:07.739Z,48.46
2019-03-16T11:22:11.972Z,48.45
2019-03-16T11:27:17.333Z,50.45
2019-03-16T11:32:21.706Z,50.20
2019-03-16T11:37:25.978Z,49.92
2019-03-16T11:42:30.231Z,52.41
2019-03-16T11:47:34.473Z,53.80
2019-03-16T11:52:38.727Z,54.86
2019-03-16T11:57:42.992Z,55.00
2019-03-16T12:02:47.239Z,54.39
2019-03-16T12:07:51.489Z,54.69
2019-03-16T12:12:55.740Z,55.98
2019-03-16T12:18:00.020Z,56.57
2019-03-16T12:23:04.289Z,58.51
2019-03-16T12:28:08.546Z,59.86
2019-03-16T12:33:12.835Z,62.09
2019-03-16T12:38:17.066Z,66.04
2019-03-16T12:43:21.315Z,65.92
2019-03-16T12:48:25.658Z,68.29
2019-03-16T12:53:29.928Z,71.29
2019-03-16T12:58:34.168Z,72.09
2019-03-16T13:03:38.411Z,73.96
2019-03-16T13:08:42.732Z,75.09
2019-03-16T13:13:46.974Z,75.89
2019-03-16T13:18:51.228Z,75.02
2019-03-16T13:23:55.469Z,75.37
2019-03-16T13:28:59.747Z,75.59
2019-03-16T13:34:04.205Z,76.85
2019-03-16T13:39:08.789Z,76.83
2019-03-16T13:44:13.005Z,76.03
2019-03-16T13:49:17.238Z,75.47
2019-03-16T13:54:21.467Z,74.78
2019-03-16T13:59:25.711Z,74.65
2019-03-16T14:04:29.958Z,75.69
2019-03-16T14:09:34.203Z,76.53
2019-03-16T14:14:38.881Z,77.95
2019-03-16T14:19:43.127Z,77.42
2019-03-16T14:24:47.369Z,76.71
2019-03-16T14:29:52.534Z,77.96
2019-03-16T14:34:56.757Z,77.75
2019-03-16T14:40:01.360Z,76.30
2019-03-16T14:45:06.713Z,77.66
2019-03-16T14:50:16.090Z,78.21
2019-03-16T14:55:19.562Z,78.38
2019-03-16T15:00:37.289Z,78.72
2019-03-16T15:05:31.503Z,78.91
2019-03-16T15:10:35.753Z,77.79
2019-03-16T15:15:40.033Z,79.11
2019-03-16T15:20:44.266Z,80.05
2019-03-16T15:25:48.509Z,80.07
2019-03-16T15:30:52.729Z,80.33
2019-03-16T15:35:56.967Z,80.26
2019-03-16T15:41:01.195Z,80.95
2019-03-16T15:46:05.450Z,80.92
2019-03-16T15:51:09.671Z,81.19
2019-03-16T15:56:13.907Z,80.83
2019-03-16T16:01:18.144Z,81.51
2019-03-16T16:06:23.315Z,81.49
2019-03-16T16:11:27.555Z,81.35
2019-03-16T16:16:31.825Z,81.89
2019-03-16T16:21:36.060Z,82.25
2019-03-16T16:26:40.291Z,81.92
2019-03-16T16:31:44.543Z,81.69
2019-03-16T16:36:48.771Z,82.36
2019-03-16T16:41:53.007Z,82.35
2019-03-16T16:46:57.269Z,82.87
2019-03-16T16:52:01.517Z,83.13
2019-03-16T16:57:05.772Z,83.02
2019-03-16T17:02:10.010Z,82.97
2019-03-16T17:07:14.324Z,83.39
2019-03-16T17:12:18.563Z,83.30
2019-03-16T17:17:34.711Z,83.78
2019-03-16T17:22:28.777Z,83.82
2019-03-16T17:27:33.009Z,84.08
2019-03-16T17:32:37.269Z,84.55
2019-03-16T17:37:41.516Z,84.78
2019-03-16T17:42:45.845Z,84.82
2019-03-16T17:47:50.084Z,84.92
2019-03-16T17:52:54.425Z,85.14
2019-03-16T17:57:58.679Z,85.21
2019-03-16T18:03:02.911Z,85.39
2019-03-16T18:08:07.155Z,85.60
2019-03-16T18:13:11.412Z,85.45
2019-03-16T18:18:15.648Z,85.88
2019-03-16T18:23:19.905Z,86.13
2019-03-16T18:28:24.151Z,86.02
2019-03-16T18:33:28.506Z,86.21
2019-03-16T18:38:32.746Z,86.13
2019-03-16T18:43:36.993Z,86.22
2019-03-16T18:48:41.267Z,86.41
2019-03-16T18:53:45.749Z,86.34
2019-03-16T18:58:50.101Z,86.41
2019-03-16T19:03:54.332Z,86.30
2019-03-16T19:08:58.795Z,86.27
2019-03-16T19:14:03.071Z,85.91
2019-03-16T19:19:07.345Z,85.70
2019-03-16T19:24:12.692Z,85.54
2019-03-16T19:29:16.984Z,85.64
2019-03-16T19:34:21.237Z,85.71
2019-03-16T19:39:25.569Z,85.78
2019-03-16T19:44:29.807Z,85.73
2019-03-16T19:49:34.293Z,85.39
2019-03-16T19:54:38.640Z,85.14
2019-03-16T19:59:42.919Z,85.00
2019-03-16T20:04:47.192Z,84.59
2019-03-16T20:09:51.444Z,84.41
2019-03-16T20:14:55.762Z,84.30
2019-03-16T20:20:00.081Z,84.34
2019-03-16T20:25:04.679Z,84.35
2019-03-16T20:30:09.509Z,84.41
2019-03-16T20:35:13.764Z,84.66
2019-03-16T20:40:18.065Z,84.87
2019-03-16T20:45:22.484Z,85.01
2019-03-16T20:50:26.918Z,85.42
2019-03-16T20:55:34.211Z,85.39
2019-03-16T21:00:37.178Z,85.53
2019-03-16T21:05:41.507Z,85.65
2019-03-16T21:10:45.852Z,85.70
2019-03-16T21:15:50.115Z,85.73
2019-03-16T21:20:54.402Z,85.70
2019-03-16T21:25:58.659Z,85.21
2019-03-16T21:31:02.946Z,84.61
2019-03-16T21:36:07.167Z,84.21
2019-03-16T21:41:11.420Z,83.67
2019-03-16T21:46:15.661Z,83.48
2019-03-16T21:51:19.909Z,83.45
2019-03-16T21:56:24.145Z,83.24
2019-03-16T22:01:28.389Z,83.20
2019-03-16T22:06:32.631Z,83.34
2019-03-16T22:11:36.860Z,82.76
2019-03-16T22:16:41.111Z,82.15
2019-03-16T22:21:45.337Z,81.85
2019-03-16T22:26:49.582Z,81.71
2019-03-16T22:31:53.815Z,80.88
2019-03-16T22:36:58.051Z,79.97
2019-03-16T22:42:02.398Z,79.86
2019-03-16T22:47:06.621Z,79.63
2019-03-16T22:52:10.872Z,78.87
2019-03-16T22:57:15.096Z,78.20
2019-03-16T23:02:19.367Z,77.64
2019-03-16T23:07:23.607Z,77.75
2019-03-16T23:12:27.861Z,77.11
2019-03-16T23:17:32.099Z,76.68
2019-03-16T23:22:36.428Z,76.34
2019-03-16T23:27:40.686Z,75.86
2019-03-16T23:32:44.922Z,75.71
2019-03-16T23:37:49.230Z,75.64
2019-03-16T23:42:53.458Z,75.46
2019-03-16T23:47:57.684Z,75.18
2019-03-16T23:53:01.927Z,74.58
2019-03-16T23:58:06.151Z,74.68
